createdAt,value
2017-08-12T00:01:56.402Z,15.50
2017-08-12T00:04:23.897Z,15.50
2017-08-12T00:06:52.849Z,15.50
2017-08-12T00:09:20.492Z,15.40
2017-08-12T00:11:47.966Z,15.50
2017-08-12T00:14:15.578Z,15.50
2017-08-12T00:16:43.418Z,15.50
2017-08-12T00:19:10.868Z,15.50
2017-08-12T00:21:40.067Z,15.50
2017-08-12T00:24:08.106Z,15.50
2017-08-12T00:26:36.150Z,15.50
2017-08-12T00:29:03.603Z,15.50
2017-08-12T00:31:31.221Z,15.50
2017-08-12T00:33:58.928Z,15.50
2017-08-12T00:36:26.866Z,15.50
2017-08-12T00:38:55.097Z,15.50
2017-08-12T00:41:22.578Z,15.50
2017-08-12T00:43:50.509Z,15.50
2017-08-12T00:46:18.473Z,15.50
2017-08-12T00:48:46.205Z,15.50
2017-08-12T00:51:15.080Z,15.40
2017-08-12T00:53:42.632Z,15.40
2017-08-12T00:56:10.737Z,15.40
2017-08-12T00:58:38.485Z,15.50
2017-08-12T01:01:07.044Z,15.50
2017-08-12T01:03:34.506Z,15.40
2017-08-12T01:06:03.188Z,15.50
2017-08-12T01:08:30.696Z,15.50
2017-08-12T01:10:58.213Z,15.50
2017-08-12T01:13:27.041Z,15.50
2017-08-12T01:15:55.010Z,15.50
2017-08-12T01:18:23.273Z,15.50
2017-08-12T01:20:50.740Z,15.50
2017-08-12T01:23:18.764Z,15.50
2017-08-12T01:25:46.499Z,15.60
2017-08-12T01:28:14.343Z,15.60
2017-08-12T01:30:42.537Z,15.60
2017-08-12T01:33:10.021Z,15.60
2017-08-12T01:35:38.298Z,15.80
2017-08-12T01:38:07.096Z,15.80
2017-08-12T01:40:36.031Z,15.80
2017-08-12T01:43:03.508Z,15.80
2017-08-12T01:45:31.193Z,15.80
2017-08-12T01:47:59.589Z,15.80
2017-08-12T01:50:27.829Z,15.80
2017-08-12T01:52:55.702Z,15.80
2017-08-12T01:55:25.016Z,15.80
2017-08-12T01:57:53.838Z,15.90
2017-08-12T02:00:21.355Z,15.80
2017-08-12T02:02:50.391Z,15.90
2017-08-12T02:05:18.719Z,15.90
2017-08-12T02:07:46.581Z,16.00
2017-08-12T02:10:14.873Z,16.00
2017-08-12T02:12:42.473Z,16.10
2017-08-12T02:15:10.268Z,16.10
2017-08-12T02:17:38.065Z,16.10
2017-08-12T02:20:06.587Z,15.90
2017-08-12T02:22:34.193Z,15.90
2017-08-12T02:25:01.644Z,16.00
2017-08-12T02:27:30.073Z,16.00
2017-08-12T02:29:57.670Z,16.00
2017-08-12T02:32:25.557Z,15.90
2017-08-12T02:34:53.969Z,15.90
2017-08-12T02:37:21.877Z,15.90
2017-08-12T02:39:49.552Z,15.90
2017-08-12T02:42:18.577Z,15.70
2017-08-12T02:44:47.280Z,15.70
2017-08-12T02:47:15.044Z,15.70
2017-08-12T02:49:42.548Z,15.70
2017-08-12T02:52:11.363Z,15.60
2017-08-12T02:54:38.869Z,15.60
2017-08-12T02:57:06.845Z,15.60
2017-08-12T02:59:34.540Z,15.60
2017-08-12T03:02:02.767Z,15.60
2017-08-12T03:04:30.758Z,15.50
2017-08-12T03:07:00.160Z,15.60
2017-08-12T03:09:28.425Z,15.60
2017-08-12T03:11:56.201Z,15.60
2017-08-12T03:14:23.676Z,15.60
2017-08-12T03:16:51.901Z,15.50
2017-08-12T03:19:20.204Z,15.50
2017-08-12T03:21:48.291Z,15.40
2017-08-12T03:24:16.745Z,15.30
2017-08-12T03:26:44.713Z,15.30
2017-08-12T03:29:12.566Z,15.30
2017-08-12T03:31:40.056Z,15.30
2017-08-12T03:34:08.548Z,15.40
2017-08-12T03:36:37.508Z,15.30
2017-08-12T03:39:05.355Z,15.30
2017-08-12T03:41:33.947Z,15.30
2017-08-12T03:44:01.517Z,15.20
2017-08-12T03:46:30.480Z,15.20
2017-08-12T03:48:57.948Z,15.10
2017-08-12T03:51:25.736Z,15.10
2017-08-12T03:53:54.222Z,15.10
2017-08-12T03:56:22.118Z,15.00
2017-08-12T03:58:49.796Z,15.00
2017-08-12T04:01:18.122Z,15.00
2017-08-12T04:03:46.101Z,15.00
2017-08-12T04:06:14.801Z,15.00
2017-08-12T04:08:42.310Z,15.00
2017-08-12T04:11:10.446Z,15.10
2017-08-12T04:13:39.137Z,15.00
2017-08-12T04:16:07.189Z,15.00
2017-08-12T04:18:34.844Z,15.00
2017-08-12T04:21:02.777Z,15.00
2017-08-12T04:23:31.276Z,15.00
2017-08-12T04:25:59.799Z,15.00
2017-08-12T04:28:27.667Z,15.00
2017-08-12T04:30:55.176Z,15.00
2017-08-12T04:33:24.052Z,14.90
2017-08-12T04:35:51.916Z,14.90
2017-08-12T04:38:20.200Z,14.90
2017-08-12T04:40:47.774Z,14.90
2017-08-12T04:43:16.023Z,14.90
2017-08-12T04:45:43.665Z,14.90
2017-08-12T04:48:11.517Z,14.90
2017-08-12T04:50:39.505Z,14.90
2017-08-12T04:53:07.897Z,14.90
2017-08-12T04:55:35.570Z,14.90
2017-08-12T04:58:03.934Z,14.90
2017-08-12T05:00:31.415Z,14.90
2017-08-12T05:02:59.649Z,15.00
2017-08-12T05:05:27.230Z,14.90
2017-08-12T05:07:56.054Z,15.00
2017-08-12T05:10:23.604Z,14.90
2017-08-12T05:12:52.252Z,15.00
2017-08-12T05:15:19.735Z,15.00
2017-08-12T05:17:47.985Z,15.00
2017-08-12T05:20:15.887Z,15.00
2017-08-12T05:22:44.406Z,15.00
2017-08-12T05:27:13.602Z,15.00
2017-08-12T05:29:41.130Z,15.00
2017-08-12T05:32:10.074Z,15.00
2017-08-12T05:34:37.545Z,15.00
2017-08-12T05:37:05.549Z,15.00
2017-08-12T05:39:33.075Z,15.00
2017-08-12T05:42:00.554Z,15.00
2017-08-12T05:44:28.918Z,15.00
2017-08-12T05:46:56.678Z,15.00
2017-08-12T05:49:25.617Z,15.10
2017-08-12T05:51:53.071Z,15.10
2017-08-12T05:54:20.837Z,15.20
2017-08-12T05:56:48.344Z,15.20
2017-08-12T05:59:16.611Z,15.30
2017-08-12T06:01:45.415Z,15.20
2017-08-12T06:04:13.692Z,15.20
2017-08-12T06:06:41.877Z,15.20
2017-08-12T06:09:10.693Z,15.20
2017-08-12T06:11:43.127Z,15.10
2017-08-12T06:14:11.747Z,15.20
2017-08-12T06:16:39.698Z,15.10
2017-08-12T06:19:09.684Z,15.10
2017-08-12T06:21:38.896Z,15.20
2017-08-12T06:24:08.591Z,15.10
2017-08-12T06:26:36.426Z,15.10
2017-08-12T06:29:07.541Z,15.10
2017-08-12T06:31:35.418Z,15.10
2017-08-12T06:34:03.889Z,15.10
2017-08-12T06:36:33.384Z,15.10
2017-08-12T06:39:02.157Z,15.00
2017-08-12T06:41:31.779Z,15.10
2017-08-12T06:43:59.650Z,15.00
2017-08-12T06:46:27.872Z,15.00
2017-08-12T06:48:57.736Z,15.10
2017-08-12T06:51:26.227Z,15.00
2017-08-12T06:53:54.090Z,15.00
2017-08-12T06:56:22.139Z,15.10
2017-08-12T06:58:49.751Z,15.10
2017-08-12T07:01:17.784Z,15.00
2017-08-12T07:03:45.281Z,15.00
2017-08-12T07:06:13.122Z,15.00
2017-08-12T07:08:42.405Z,15.00
2017-08-12T07:11:10.377Z,15.00
2017-08-12T07:13:37.866Z,15.00
2017-08-12T07:16:06.441Z,15.00
2017-08-12T07:18:34.276Z,15.10
2017-08-12T07:21:02.057Z,15.10
2017-08-12T07:23:31.130Z,15.00
2017-08-12T07:25:59.508Z,15.00
2017-08-12T07:28:27.925Z,15.00
2017-08-12T07:30:58.823Z,15.00
2017-08-12T07:33:27.508Z,15.00
2017-08-12T07:35:57.527Z,15.00
2017-08-12T07:38:25.026Z,15.00
2017-08-12T07:40:53.357Z,15.00
2017-08-12T07:43:21.028Z,15.00
2017-08-12T07:45:48.838Z,14.90
2017-08-12T07:48:16.369Z,14.90
2017-08-12T07:50:45.023Z,14.80
2017-08-12T07:53:12.579Z,14.70
2017-08-12T07:55:40.192Z,14.70
2017-08-12T07:58:08.955Z,14.80
2017-08-12T08:00:38.380Z,14.80
2017-08-12T08:03:08.321Z,14.70
2017-08-12T08:05:35.864Z,14.70
2017-08-12T08:08:04.364Z,14.70
2017-08-12T08:10:39.530Z,14.60
2017-08-12T08:13:09.076Z,14.60
2017-08-12T08:15:38.545Z,14.60
2017-08-12T08:18:06.612Z,14.60
2017-08-12T08:20:34.583Z,14.60
2017-08-12T08:23:02.494Z,14.60
2017-08-12T08:25:31.333Z,14.70
2017-08-12T08:27:59.902Z,14.70
2017-08-12T08:30:30.400Z,14.70
2017-08-12T08:32:59.010Z,14.70
2017-08-12T08:35:27.812Z,14.70
2017-08-12T08:37:55.728Z,14.80
2017-08-12T08:40:25.268Z,14.90
2017-08-12T08:42:54.524Z,14.80
2017-08-12T08:45:24.380Z,15.00
2017-08-12T08:47:54.395Z,14.90
2017-08-12T08:50:23.658Z,15.00
2017-08-12T08:52:55.796Z,14.90
2017-08-12T08:55:25.364Z,14.80
2017-08-12T08:57:53.762Z,14.90
2017-08-12T09:00:22.553Z,14.90
2017-08-12T09:02:50.062Z,15.00
2017-08-12T09:05:18.773Z,15.10
2017-08-12T09:07:47.358Z,15.10
2017-08-12T09:10:19.521Z,15.10
2017-08-12T09:12:47.594Z,15.10
2017-08-12T09:15:16.275Z,15.10
2017-08-12T09:17:44.868Z,15.10
2017-08-12T09:20:12.406Z,15.00
2017-08-12T09:22:40.637Z,15.00
2017-08-12T09:25:09.898Z,15.00
2017-08-12T09:27:40.703Z,15.10
2017-08-12T09:30:08.229Z,15.10
2017-08-12T09:32:37.786Z,15.10
2017-08-12T09:35:05.368Z,15.00
2017-08-12T09:37:34.438Z,15.10
2017-08-12T09:40:02.816Z,15.10
2017-08-12T09:42:30.940Z,15.00
2017-08-12T09:44:59.849Z,15.00
2017-08-12T09:47:31.392Z,15.10
2017-08-12T09:50:03.084Z,15.10
2017-08-12T09:52:31.973Z,15.10
2017-08-12T09:55:02.366Z,15.10
2017-08-12T09:57:29.957Z,15.10
2017-08-12T09:59:59.579Z,15.20
2017-08-12T10:02:28.043Z,15.20
2017-08-12T10:04:56.522Z,15.20
2017-08-12T10:07:25.560Z,15.20
2017-08-12T10:09:54.366Z,15.20
2017-08-12T10:12:23.704Z,15.20
2017-08-12T10:14:53.218Z,15.30
2017-08-12T10:17:20.731Z,15.30
2017-08-12T10:19:49.250Z,15.20
2017-08-12T10:22:18.031Z,15.20
2017-08-12T10:24:47.849Z,15.20
2017-08-12T10:27:16.252Z,15.20
2017-08-12T10:29:44.318Z,15.30
2017-08-12T10:32:12.427Z,15.40
2017-08-12T10:34:42.273Z,15.40
2017-08-12T10:37:11.166Z,15.30
2017-08-12T10:39:39.650Z,15.30
2017-08-12T10:42:09.472Z,15.40
2017-08-12T10:44:39.676Z,15.40
2017-08-12T10:47:09.568Z,15.40
2017-08-12T10:49:38.998Z,15.40
2017-08-12T10:52:07.525Z,15.40
2017-08-12T10:54:37.079Z,15.40
2017-08-12T10:57:05.369Z,15.40
2017-08-12T10:59:35.571Z,15.40
2017-08-12T11:02:04.673Z,15.40
2017-08-12T11:04:33.761Z,15.50
2017-08-12T11:07:02.039Z,15.50
2017-08-12T11:09:29.596Z,15.60
2017-08-12T11:11:58.382Z,15.50
2017-08-12T11:14:26.245Z,15.60
2017-08-12T11:16:54.681Z,15.70
2017-08-12T11:19:24.129Z,15.60
2017-08-12T11:21:53.325Z,15.60
2017-08-12T11:24:22.417Z,15.70
2017-08-12T11:26:53.907Z,15.60
2017-08-12T11:29:22.359Z,15.70
2017-08-12T11:31:50.224Z,15.70
2017-08-12T11:34:18.553Z,15.70
2017-08-12T11:36:48.755Z,15.80
2017-08-12T11:39:19.256Z,15.70
2017-08-12T11:41:48.330Z,15.80
2017-08-12T11:44:16.820Z,15.90
2017-08-12T11:46:45.294Z,16.00
2017-08-12T11:49:16.328Z,16.00
2017-08-12T11:51:44.816Z,16.00
2017-08-12T11:54:14.719Z,16.10
2017-08-12T11:56:43.025Z,16.20
2017-08-12T11:59:12.447Z,16.20
2017-08-12T12:01:41.091Z,16.30
2017-08-12T12:04:10.317Z,16.40
2017-08-12T12:06:39.712Z,16.40
2017-08-12T12:09:07.736Z,16.30
2017-08-12T12:11:36.366Z,16.30
2017-08-12T12:14:04.205Z,16.30
2017-08-12T12:16:34.776Z,16.30
2017-08-12T12:19:05.566Z,16.40
2017-08-12T12:21:34.657Z,16.30
2017-08-12T12:24:03.650Z,16.40
2017-08-12T12:26:34.041Z,16.40
2017-08-12T12:29:04.298Z,16.40
2017-08-12T12:31:31.799Z,16.40
2017-08-12T12:34:00.438Z,16.50
2017-08-12T12:36:30.879Z,16.50
2017-08-12T12:38:59.195Z,16.70
2017-08-12T12:41:28.335Z,16.70
2017-08-12T12:43:55.994Z,16.80
2017-08-12T12:46:23.552Z,17.10
2017-08-12T12:48:51.625Z,17.20
2017-08-12T12:51:20.105Z,17.20
2017-08-12T12:53:47.674Z,17.20
2017-08-12T12:56:15.643Z,17.30
2017-08-12T12:58:43.316Z,17.30
2017-08-12T13:01:11.662Z,17.30
2017-08-12T13:03:39.521Z,17.40
2017-08-12T13:06:07.149Z,17.50
2017-08-12T13:08:36.571Z,17.70
2017-08-12T13:11:04.098Z,17.70
2017-08-12T13:13:32.635Z,17.80
2017-08-12T13:16:00.498Z,18.10
2017-08-12T13:18:29.023Z,18.70
2017-08-12T13:21:00.508Z,19.40
2017-08-12T13:23:28.060Z,19.30
2017-08-12T13:25:56.669Z,18.80
2017-08-12T13:28:25.355Z,18.80
2017-08-12T13:30:54.457Z,18.80
2017-08-12T13:33:22.312Z,18.80
2017-08-12T13:35:49.847Z,18.80
2017-08-12T13:38:17.844Z,18.70
2017-08-12T13:40:46.157Z,18.70
2017-08-12T13:43:14.706Z,18.80
2017-08-12T13:45:43.177Z,18.80
2017-08-12T13:48:10.990Z,18.90
2017-08-12T13:50:40.868Z,19.00
2017-08-12T13:53:08.345Z,19.00
2017-08-12T13:55:36.214Z,19.00
2017-08-12T13:58:04.861Z,19.00
2017-08-12T14:00:32.828Z,18.90
2017-08-12T14:03:00.628Z,18.90
2017-08-12T14:05:28.466Z,18.90
2017-08-12T14:07:56.016Z,18.90
2017-08-12T14:10:24.801Z,19.00
2017-08-12T14:12:53.138Z,19.00
2017-08-12T14:15:21.661Z,18.90
2017-08-12T14:17:50.856Z,18.90
2017-08-12T14:20:19.420Z,19.10
2017-08-12T14:22:48.737Z,19.10
2017-08-12T14:25:18.105Z,19.10
2017-08-12T14:27:46.647Z,19.40
2017-08-12T14:30:14.486Z,19.40
2017-08-12T14:32:44.916Z,19.50
2017-08-12T14:35:12.418Z,19.60
2017-08-12T14:37:41.052Z,19.70
2017-08-12T14:40:08.916Z,19.60
2017-08-12T14:42:37.703Z,19.70
2017-08-12T14:45:05.688Z,19.60
2017-08-12T14:47:33.546Z,19.50
2017-08-12T14:50:02.322Z,19.50
2017-08-12T14:52:30.190Z,19.60
2017-08-12T14:54:58.155Z,19.50
2017-08-12T14:57:25.965Z,19.50
2017-08-12T14:59:53.687Z,19.50
2017-08-12T15:02:21.844Z,19.40
2017-08-12T15:04:51.496Z,19.40
2017-08-12T15:07:19.325Z,19.20
2017-08-12T15:09:48.115Z,19.10
2017-08-12T15:12:16.286Z,19.10
2017-08-12T15:14:43.745Z,19.10
2017-08-12T15:17:12.023Z,19.00
2017-08-12T15:19:41.466Z,19.00
2017-08-12T15:22:10.207Z,19.00
2017-08-12T15:24:38.796Z,18.90
2017-08-12T15:27:07.987Z,18.90
2017-08-12T15:32:05.558Z,18.80
2017-08-12T15:34:33.629Z,18.80
2017-08-12T15:37:01.622Z,18.80
2017-08-12T15:39:29.768Z,18.80
2017-08-12T15:41:57.635Z,18.70
2017-08-12T15:44:25.408Z,18.70
2017-08-12T15:46:56.716Z,18.80
2017-08-12T15:49:25.800Z,18.80
2017-08-12T15:51:54.422Z,18.80
2017-08-12T15:54:22.698Z,18.80
2017-08-12T15:56:54.692Z,18.80
2017-08-12T15:59:23.180Z,18.80
2017-08-12T16:01:51.622Z,18.80
2017-08-12T16:04:19.483Z,18.90
2017-08-12T16:06:47.862Z,18.90
2017-08-12T16:09:16.032Z,19.00
2017-08-12T16:11:45.296Z,19.10
2017-08-12T16:14:13.901Z,19.20
2017-08-12T16:16:42.785Z,19.10
2017-08-12T16:19:10.669Z,19.10
2017-08-12T16:21:40.028Z,19.10
2017-08-12T16:24:08.669Z,19.00
2017-08-12T16:26:37.441Z,19.00
2017-08-12T16:29:06.867Z,19.00
2017-08-12T16:31:34.712Z,19.00
2017-08-12T16:34:03.392Z,18.90
2017-08-12T16:36:32.484Z,18.80
2017-08-12T16:39:00.607Z,18.80
2017-08-12T16:41:29.000Z,18.80
2017-08-12T16:43:59.974Z,18.80
2017-08-12T16:46:32.344Z,18.80
2017-08-12T16:49:00.210Z,18.70
2017-08-12T16:51:29.478Z,18.70
2017-08-12T16:53:58.606Z,18.70
2017-08-12T16:56:26.102Z,18.70
2017-08-12T16:58:54.335Z,18.60
2017-08-12T17:01:23.121Z,18.50
2017-08-12T17:03:51.806Z,18.40
2017-08-12T17:06:20.838Z,18.30
2017-08-12T17:08:49.690Z,18.30
2017-08-12T17:11:17.964Z,18.30
2017-08-12T17:13:46.480Z,18.30
2017-08-12T17:16:15.193Z,18.40
2017-08-12T17:18:44.937Z,18.40
2017-08-12T17:21:14.136Z,18.40
2017-08-12T17:23:43.231Z,18.30
2017-08-12T17:26:11.035Z,18.40
2017-08-12T17:28:39.472Z,18.40
2017-08-12T17:31:07.440Z,18.30
2017-08-12T17:33:35.310Z,18.30
2017-08-12T17:36:04.208Z,18.30
2017-08-12T17:38:32.571Z,18.30
2017-08-12T17:41:00.357Z,18.30
2017-08-12T17:43:28.200Z,18.30
2017-08-12T17:45:57.092Z,18.30
2017-08-12T17:48:25.320Z,18.30
2017-08-12T17:50:53.538Z,18.30
2017-08-12T17:53:24.154Z,18.30
2017-08-12T17:55:52.647Z,18.30
2017-08-12T17:58:20.957Z,18.30
2017-08-12T18:00:49.711Z,18.30
2017-08-12T18:03:17.524Z,18.20
2017-08-12T18:05:46.159Z,18.20
2017-08-12T18:08:14.024Z,18.20
2017-08-12T18:10:42.987Z,18.20
2017-08-12T18:13:12.244Z,18.10
2017-08-12T18:15:39.770Z,18.10
2017-08-12T18:18:07.532Z,18.10
2017-08-12T18:20:36.015Z,18.10
2017-08-12T18:23:04.422Z,18.10
2017-08-12T18:25:32.736Z,18.10
2017-08-12T18:28:01.351Z,18.10
2017-08-12T18:30:29.764Z,18.00
2017-08-12T18:32:59.588Z,18.00
2017-08-12T18:35:27.882Z,18.10
2017-08-12T18:37:56.499Z,18.10
2017-08-12T18:40:24.654Z,18.10
2017-08-12T18:42:53.057Z,18.10
2017-08-12T18:45:21.171Z,18.00
2017-08-12T18:47:49.599Z,18.00
2017-08-12T18:50:17.122Z,18.00
2017-08-12T18:52:49.942Z,18.00
2017-08-12T18:55:18.226Z,17.90
2017-08-12T18:57:45.831Z,18.00
2017-08-12T19:00:14.228Z,18.00
2017-08-12T19:02:41.713Z,18.00
2017-08-12T19:05:09.217Z,18.00
2017-08-12T19:07:38.310Z,18.00
2017-08-12T19:10:06.583Z,18.00
2017-08-12T19:12:35.217Z,18.00
2017-08-12T19:15:03.452Z,18.00
2017-08-12T19:17:32.073Z,17.90
2017-08-12T19:20:00.860Z,17.90
2017-08-12T19:22:33.027Z,17.90
2017-08-12T19:25:03.157Z,17.90
2017-08-12T19:27:31.933Z,17.90
2017-08-12T19:29:59.388Z,17.80
2017-08-12T19:32:28.208Z,17.80
2017-08-12T19:34:57.017Z,17.70
2017-08-12T19:37:28.615Z,17.60
2017-08-12T19:39:56.482Z,17.60
2017-08-12T19:42:25.781Z,17.60
2017-08-12T19:44:54.547Z,17.60
2017-08-12T19:47:23.204Z,17.50
2017-08-12T19:49:52.456Z,17.40
2017-08-12T19:52:20.316Z,17.40
2017-08-12T19:54:48.183Z,17.40
2017-08-12T20:00:22.230Z,17.40
2017-08-12T20:02:49.855Z,17.30
2017-08-12T20:05:19.088Z,17.30
2017-08-12T20:07:47.226Z,17.30
2017-08-12T20:10:16.457Z,17.20
2017-08-12T20:12:46.442Z,17.20
2017-08-12T20:15:14.341Z,17.20
2017-08-12T20:17:43.437Z,17.30
2017-08-12T20:20:11.792Z,17.20
2017-08-12T20:22:39.509Z,17.20
2017-08-12T20:25:07.788Z,17.20
2017-08-12T20:27:35.617Z,17.30
2017-08-12T20:30:03.267Z,17.20
2017-08-12T20:32:31.649Z,17.20
2017-08-12T20:35:00.436Z,17.20
2017-08-12T20:37:31.374Z,17.20
2017-08-12T20:40:00.489Z,17.20
2017-08-12T20:42:30.933Z,17.20
2017-08-12T20:45:00.179Z,17.20
2017-08-12T20:47:29.595Z,17.20
2017-08-12T20:49:58.998Z,17.20
2017-08-12T20:52:28.144Z,17.30
2017-08-12T20:54:55.783Z,17.30
2017-08-12T20:57:23.770Z,17.20
2017-08-12T20:59:52.205Z,17.20
2017-08-12T21:02:21.517Z,17.30
2017-08-12T21:04:51.525Z,17.20
2017-08-12T21:07:21.222Z,17.20
2017-08-12T21:09:50.339Z,17.20
2017-08-12T21:12:20.230Z,17.20
2017-08-12T21:14:50.015Z,17.20
2017-08-12T21:17:18.123Z,17.20
2017-08-12T21:19:45.866Z,17.20
2017-08-12T21:22:14.912Z,17.20
2017-08-12T21:24:43.206Z,17.20
2017-08-12T21:27:12.351Z,17.20
2017-08-12T21:29:40.671Z,17.20
2017-08-12T21:32:10.527Z,17.20
2017-08-12T21:34:38.393Z,17.20
2017-08-12T21:37:07.118Z,17.20
2017-08-12T21:39:37.706Z,17.20
2017-08-12T21:42:06.998Z,17.20
2017-08-12T21:44:34.884Z,17.10
2017-08-12T21:47:07.287Z,17.10
2017-08-12T21:49:34.832Z,17.10
2017-08-12T21:52:02.566Z,17.10
2017-08-12T21:54:31.588Z,17.20
2017-08-12T21:57:00.713Z,17.20
2017-08-12T21:59:29.475Z,17.10
2017-08-12T22:01:56.929Z,17.00
2017-08-12T22:04:34.328Z,17.00
2017-08-12T22:07:04.504Z,17.10
2017-08-12T22:09:37.806Z,17.00
2017-08-12T22:12:09.171Z,17.00
2017-08-12T22:14:46.627Z,17.00
2017-08-12T22:17:15.936Z,17.10
2017-08-12T22:19:44.255Z,17.20
2017-08-12T22:22:17.232Z,17.10
2017-08-12T22:24:49.344Z,17.20
2017-08-12T22:27:17.932Z,17.20
2017-08-12T22:29:47.287Z,17.10
2017-08-12T22:32:18.415Z,17.10
2017-08-12T22:34:48.918Z,17.10
2017-08-12T22:37:19.232Z,17.10
2017-08-12T22:39:52.678Z,17.10
2017-08-12T22:42:23.476Z,17.10
2017-08-12T22:44:53.236Z,17.00
2017-08-12T22:47:22.716Z,17.10
2017-08-12T22:49:51.050Z,17.10
2017-08-12T22:52:20.111Z,17.00
2017-08-12T22:54:48.041Z,17.10
2017-08-12T22:57:16.608Z,17.10
2017-08-12T22:59:46.187Z,17.10
2017-08-12T23:02:15.557Z,17.10
2017-08-12T23:04:44.772Z,17.10
2017-08-12T23:07:13.760Z,17.10
2017-08-12T23:09:46.573Z,17.10
2017-08-12T23:12:15.777Z,17.10
2017-08-12T23:14:46.028Z,17.10
2017-08-12T23:17:16.708Z,17.10
2017-08-12T23:19:49.925Z,17.10
2017-08-12T23:22:23.444Z,17.10
2017-08-12T23:24:53.653Z,17.10
2017-08-12T23:27:23.977Z,17.00
2017-08-12T23:29:55.300Z,17.00
2017-08-12T23:32:25.876Z,17.00
2017-08-12T23:34:58.511Z,17.00
2017-08-12T23:37:28.912Z,17.00
2017-08-12T23:39:59.885Z,17.00
2017-08-12T23:42:29.433Z,17.00
2017-08-12T23:45:00.104Z,16.90
2017-08-12T23:47:30.326Z,16.90
2017-08-12T23:49:59.400Z,17.00
2017-08-12T23:52:28.289Z,17.00
2017-08-12T23:54:57.145Z,17.00
2017-08-12T23:57:29.538Z,17.00
2017-08-12T23:59:57.677Z,17.00
